createdAt,value
2022-09-28T00:01:24.134Z,96586.19
2022-09-28T00:03:54.522Z,96568.88
2022-09-28T00:06:26.720Z,96553.34
2022-09-28T00:08:53.602Z,96552.50
2022-09-28T00:11:22.916Z,96545.13
2022-09-28T00:13:53.327Z,96527.56
2022-09-28T00:16:27.561Z,96531.75
2022-09-28T00:18:55.314Z,96518.28
2022-09-28T00:21:29.593Z,96510.50
2022-09-28T00:24:15.707Z,96514.69
2022-09-28T00:26:55.682Z,96502.66
2022-09-28T00:29:42.104Z,96502.28
2022-09-28T00:32:13.993Z,96517.66
2022-09-28T00:34:45.989Z,96492.16
2022-09-28T00:37:15.097Z,96480.38
2022-09-28T00:39:42.102Z,96489.09
2022-09-28T00:42:19.409Z,96482.16
2022-09-28T00:44:59.695Z,96481.25
2022-09-28T00:47:52.006Z,96472.56
2022-09-28T00:50:31.027Z,96473.25
2022-09-28T00:53:19.521Z,96466.13
2022-09-28T00:55:51.506Z,96452.47
2022-09-28T00:58:27.487Z,96449.53
2022-09-28T01:00:59.626Z,96454.00
2022-09-28T01:03:28.780Z,96444.03
2022-09-28T01:05:59.647Z,96431.22
2022-09-28T01:08:29.751Z,96425.84
2022-09-28T01:10:59.361Z,96420.53
2022-09-28T01:13:28.465Z,96420.06
2022-09-28T01:17:00.321Z,96410.84
2022-09-28T01:19:58.824Z,96391.28
2022-09-28T01:22:59.032Z,96411.88
2022-09-28T01:25:55.877Z,96389.69
2022-09-28T01:28:29.235Z,96381.06
2022-09-28T01:31:15.318Z,96379.94
2022-09-28T01:33:48.501Z,96378.44
2022-09-28T01:36:25.932Z,96363.94
2022-09-28T01:39:00.825Z,96360.66
2022-09-28T01:41:30.439Z,96356.97
2022-09-28T01:44:02.889Z,96351.91
2022-09-28T01:46:41.362Z,96350.44
2022-09-28T01:49:34.710Z,96344.88
2022-09-28T01:52:24.504Z,96325.84
2022-09-28T01:55:13.531Z,96320.19
2022-09-28T01:58:02.074Z,96315.47
2022-09-28T02:00:29.941Z,96331.78
2022-09-28T02:03:16.747Z,96335.03
2022-09-28T02:05:57.856Z,96333.75
2022-09-28T02:08:43.453Z,96313.13
2022-09-28T02:11:17.393Z,96324.56
2022-09-28T02:14:02.050Z,96289.22
2022-09-28T02:16:37.820Z,96289.41
2022-09-28T02:19:08.553Z,96294.16
2022-09-28T02:22:08.700Z,96301.69
2022-09-28T02:24:51.547Z,96278.03
2022-09-28T02:27:52.497Z,96278.72
2022-09-28T02:30:19.977Z,96284.31
2022-09-28T02:32:50.830Z,96275.31
2022-09-28T02:35:19.038Z,96285.00
2022-09-28T02:37:46.518Z,96297.91
2022-09-28T02:40:25.802Z,96288.13
2022-09-28T02:43:25.394Z,96278.28
2022-09-28T02:46:05.906Z,96273.97
2022-09-28T02:49:21.701Z,96259.31
2022-09-28T02:52:30.509Z,96263.69
2022-09-28T02:55:19.100Z,96254.66
2022-09-28T02:58:09.153Z,96259.03
2022-09-28T03:00:57.590Z,96249.56
2022-09-28T03:03:37.670Z,96276.09
2022-09-28T03:06:37.755Z,96289.41
2022-09-28T03:09:25.793Z,96210.69
2022-09-28T03:12:11.280Z,96218.00
2022-09-28T03:14:38.250Z,96195.06
2022-09-28T03:17:05.649Z,96203.69
2022-09-28T03:19:34.579Z,96199.97
2022-09-28T03:22:01.838Z,96197.56
2022-09-28T03:24:29.225Z,96201.34
2022-09-28T03:26:56.518Z,96196.28
2022-09-28T03:29:23.530Z,96186.19
2022-09-28T03:31:57.435Z,96188.50
2022-09-28T03:34:24.383Z,96193.94
2022-09-28T03:36:52.332Z,96187.81
2022-09-28T03:39:19.369Z,96202.72
2022-09-28T03:41:46.393Z,96194.31
2022-09-28T03:44:14.081Z,96187.09
2022-09-28T03:46:41.235Z,96195.16
2022-09-28T03:49:10.266Z,96195.25
2022-09-28T03:51:37.651Z,96189.81
2022-09-28T03:54:05.112Z,96200.88
2022-09-28T03:56:32.266Z,96221.63
2022-09-28T03:58:59.247Z,96246.25
2022-09-28T04:01:26.882Z,96241.69
2022-09-28T04:03:57.536Z,96235.38
2022-09-28T04:06:25.768Z,96233.97
2022-09-28T04:08:52.945Z,96220.63
2022-09-28T04:11:19.961Z,96228.31
2022-09-28T04:13:50.227Z,96255.09
2022-09-28T04:16:18.607Z,96254.31
2022-09-28T04:18:54.880Z,96246.88
2022-09-28T04:21:51.088Z,96242.72
2022-09-28T04:24:20.201Z,96242.94
2022-09-28T04:26:47.503Z,96256.50
2022-09-28T04:29:17.700Z,96259.38
2022-09-28T04:31:56.254Z,96238.16
2022-09-28T04:34:37.103Z,96254.63
2022-09-28T04:37:04.280Z,96253.41
2022-09-28T04:39:31.256Z,96257.66
2022-09-28T04:41:58.668Z,96237.25
2022-09-28T04:44:27.345Z,96243.16
2022-09-28T04:47:02.981Z,96255.47
2022-09-28T04:49:35.323Z,96254.44
2022-09-28T04:52:08.379Z,96246.78
2022-09-28T04:54:36.020Z,96243.88
2022-09-28T04:57:03.768Z,96244.19
2022-09-28T04:59:30.829Z,96246.75
2022-09-28T05:01:57.928Z,96254.06
2022-09-28T05:04:58.919Z,96249.50
2022-09-28T05:07:48.650Z,96261.84
2022-09-28T05:10:15.672Z,96262.88
2022-09-28T05:12:42.740Z,96257.69
2022-09-28T05:15:11.670Z,96255.69
2022-09-28T05:17:39.078Z,96259.22
2022-09-28T05:20:22.106Z,96267.03
2022-09-28T05:22:49.281Z,96248.81
2022-09-28T05:25:17.499Z,96250.38
2022-09-28T05:28:03.475Z,96246.78
2022-09-28T05:31:05.682Z,96241.28
2022-09-28T05:33:53.535Z,96236.00
2022-09-28T05:36:21.650Z,96235.81
2022-09-28T05:38:49.017Z,96252.09
2022-09-28T05:41:16.095Z,96249.56
2022-09-28T05:43:45.631Z,96245.94
2022-09-28T05:46:12.741Z,96256.63
2022-09-28T05:48:41.673Z,96256.72
2022-09-28T05:51:10.131Z,96264.66
2022-09-28T05:53:37.499Z,96246.56
2022-09-28T05:56:05.527Z,96244.63
2022-09-28T05:58:34.018Z,96241.19
2022-09-28T06:01:01.098Z,96241.97
2022-09-28T06:03:30.163Z,96258.91
2022-09-28T06:06:00.590Z,96258.72
2022-09-28T06:08:27.782Z,96267.88
2022-09-28T06:11:03.761Z,96266.22
2022-09-28T06:13:32.138Z,96275.31
2022-09-28T06:15:59.231Z,96263.38
2022-09-28T06:18:27.525Z,96268.94
2022-09-28T06:21:21.715Z,96276.25
2022-09-28T06:23:49.584Z,96287.06
2022-09-28T06:26:18.479Z,96286.81
2022-09-28T06:28:45.988Z,96295.75
2022-09-28T06:31:13.424Z,96297.56
2022-09-28T06:33:45.150Z,96302.59
2022-09-28T06:36:13.686Z,96299.78
2022-09-28T06:38:40.687Z,96301.78
2022-09-28T06:41:08.724Z,96291.97
2022-09-28T06:43:36.686Z,96294.78
2022-09-28T06:46:14.149Z,96299.06
2022-09-28T06:48:50.659Z,96308.88
2022-09-28T06:51:43.624Z,96306.66
2022-09-28T06:54:25.838Z,96322.72
2022-09-28T06:57:21.631Z,96311.94
2022-09-28T06:59:48.687Z,96315.22
2022-09-28T07:02:16.192Z,96319.41
2022-09-28T07:05:12.385Z,96323.31
2022-09-28T07:07:59.685Z,96316.94
2022-09-28T07:11:06.694Z,96335.53
2022-09-28T07:13:51.466Z,96352.28
2022-09-28T07:16:26.417Z,96352.63
2022-09-28T07:18:55.027Z,96356.34
2022-09-28T07:21:28.727Z,96347.84
2022-09-28T07:24:00.104Z,96355.31
2022-09-28T07:26:56.903Z,96354.03
2022-09-28T07:29:34.984Z,96358.88
2022-09-28T07:32:22.718Z,96356.09
2022-09-28T07:35:14.487Z,96357.28
2022-09-28T07:37:58.745Z,96366.81
2022-09-28T07:40:48.367Z,96360.50
2022-09-28T07:43:20.529Z,96376.59
2022-09-28T07:45:52.583Z,96374.81
2022-09-28T07:48:21.199Z,96377.91
2022-09-28T07:51:00.367Z,96383.88
2022-09-28T07:53:33.294Z,96409.16
2022-09-28T07:56:19.563Z,96415.03
2022-09-28T07:59:07.832Z,96410.31
2022-09-28T08:01:41.069Z,96408.63
2022-09-28T08:04:10.688Z,96425.97
2022-09-28T08:06:40.500Z,96424.44
2022-09-28T08:09:08.902Z,96432.47
2022-09-28T08:11:57.939Z,96424.03
2022-09-28T08:14:48.271Z,96423.28
2022-09-28T08:17:47.879Z,96413.28
2022-09-28T08:20:34.380Z,96400.34
2022-09-28T08:23:08.889Z,96407.66
2022-09-28T08:25:38.261Z,96419.50
2022-09-28T08:28:07.398Z,96418.28
2022-09-28T08:30:40.249Z,96423.84
2022-09-28T08:33:40.096Z,96415.81
2022-09-28T08:36:25.996Z,96421.53
2022-09-28T08:39:02.312Z,96426.56
2022-09-28T08:41:43.857Z,96426.63
2022-09-28T08:48:15.486Z,96426.84
2022-09-28T08:51:19.247Z,96437.22
2022-09-28T08:54:23.263Z,96448.47
2022-09-28T08:57:01.961Z,96443.75
2022-09-28T08:59:54.923Z,96452.19
2022-09-28T09:02:39.567Z,96463.97
2022-09-28T09:05:58.342Z,96458.06
2022-09-28T09:09:01.030Z,96464.41
2022-09-28T09:11:56.173Z,96467.66
2022-09-28T09:15:02.962Z,96479.72
2022-09-28T09:17:59.522Z,96473.78
2022-09-28T09:20:59.047Z,96482.78
2022-09-28T09:23:40.203Z,96473.09
2022-09-28T09:26:25.832Z,96473.91
2022-09-28T09:29:17.227Z,96485.66
2022-09-28T09:32:05.787Z,96482.88
2022-09-28T09:34:45.425Z,96496.31
2022-09-28T09:38:10.446Z,96486.13
2022-09-28T09:41:04.652Z,96494.72
2022-09-28T09:44:44.920Z,96495.00
2022-09-28T09:47:59.113Z,96501.81
2022-09-28T09:50:50.630Z,96519.31
2022-09-28T09:53:50.058Z,96518.53
2022-09-28T09:56:43.915Z,96511.72
2022-09-28T09:59:26.694Z,96508.53
2022-09-28T10:02:28.264Z,96504.28
2022-09-28T10:05:20.984Z,96503.19
2022-09-28T10:08:01.901Z,96506.41
2022-09-28T10:10:40.531Z,96513.88
2022-09-28T10:13:10.463Z,96523.03
2022-09-28T10:15:40.608Z,96535.19
2022-09-28T10:18:16.778Z,96517.00
2022-09-28T10:21:02.924Z,96520.47
2022-09-28T10:23:54.394Z,96501.22
2022-09-28T10:26:32.812Z,96505.91
2022-09-28T10:29:01.721Z,96507.78
2022-09-28T10:31:43.699Z,96497.91
2022-09-28T10:34:28.583Z,96493.38
2022-09-28T10:37:03.422Z,96506.97
2022-09-28T10:39:53.351Z,96510.22
2022-09-28T10:42:32.430Z,96514.47
2022-09-28T10:45:12.864Z,96514.72
2022-09-28T10:47:44.619Z,96514.97
2022-09-28T10:50:34.962Z,96514.22
2022-09-28T10:53:20.619Z,96520.91
2022-09-28T10:56:08.881Z,96521.91
2022-09-28T10:58:42.126Z,96519.81
2022-09-28T11:01:22.115Z,96510.72
2022-09-28T11:03:57.092Z,96504.22
2022-09-28T11:06:37.679Z,96517.56
2022-09-28T11:09:20.647Z,96508.31
2022-09-28T11:11:47.812Z,96514.66
2022-09-28T11:14:42.977Z,96510.69
2022-09-28T11:17:27.242Z,96516.47
2022-09-28T11:20:26.126Z,96498.91
2022-09-28T11:23:07.913Z,96498.16
2022-09-28T11:25:36.585Z,96495.50
2022-09-28T11:28:05.615Z,96497.09
2022-09-28T11:30:52.857Z,96482.91
2022-09-28T11:33:43.046Z,96492.28
2022-09-28T11:36:48.279Z,96489.25
2022-09-28T11:39:42.195Z,96490.06
2022-09-28T11:42:21.764Z,96494.63
2022-09-28T11:44:49.515Z,96490.38
2022-09-28T11:47:47.339Z,96496.41
2022-09-28T11:50:54.829Z,96489.47
2022-09-28T11:53:52.471Z,96482.88
2022-09-28T11:56:41.939Z,96481.19
2022-09-28T11:59:18.369Z,96480.84
2022-09-28T12:02:03.636Z,96482.75
2022-09-28T12:05:22.212Z,96469.88
2022-09-28T12:07:56.848Z,96468.06
2022-09-28T12:11:01.850Z,96468.53
2022-09-28T12:13:52.898Z,96472.88
2022-09-28T12:17:03.706Z,96479.91
2022-09-28T12:19:29.897Z,96481.16
2022-09-28T12:22:10.130Z,96481.16
2022-09-28T12:24:47.883Z,96475.38
2022-09-28T12:27:41.082Z,96481.72
2022-09-28T12:30:20.648Z,96468.38
2022-09-28T12:33:15.369Z,96476.31
2022-09-28T12:36:09.718Z,96470.09
2022-09-28T12:39:17.592Z,96463.59
2022-09-28T12:42:06.311Z,96465.94
2022-09-28T12:45:17.685Z,96464.28
2022-09-28T12:48:40.968Z,96465.41
2022-09-28T12:51:41.479Z,96471.03
2022-09-28T12:54:44.337Z,96476.81
2022-09-28T12:57:39.045Z,96474.88
2022-09-28T13:00:17.521Z,96474.78
2022-09-28T13:03:38.416Z,96466.72
2022-09-28T13:06:22.733Z,96475.38
2022-09-28T13:09:16.812Z,96466.53
2022-09-28T13:12:04.764Z,96473.88
2022-09-28T13:15:03.737Z,96479.66
2022-09-28T13:17:57.951Z,96469.72
2022-09-28T13:21:03.099Z,96466.38
2022-09-28T13:23:46.568Z,96469.81
2022-09-28T13:26:27.117Z,96466.69
2022-09-28T13:29:02.154Z,96462.06
2022-09-28T13:31:34.947Z,96458.47
2022-09-28T13:34:04.502Z,96461.69
2022-09-28T13:36:31.351Z,96468.44
2022-09-28T13:39:00.778Z,96448.97
2022-09-28T13:41:38.704Z,96459.78
2022-09-28T13:44:22.212Z,96466.53
2022-09-28T13:47:26.666Z,96460.91
2022-09-28T13:50:39.036Z,96461.31
2022-09-28T13:53:05.877Z,96467.28
2022-09-28T13:56:03.265Z,96468.31
2022-09-28T13:58:43.816Z,96475.50
2022-09-28T14:01:23.471Z,96483.09
2022-09-28T14:04:23.087Z,96493.25
2022-09-28T14:06:56.951Z,96484.59
2022-09-28T14:09:47.806Z,96487.69
2022-09-28T14:12:35.520Z,96488.03
2022-09-28T14:15:13.205Z,96490.19
2022-09-28T14:18:01.183Z,96493.19
2022-09-28T14:20:31.398Z,96500.88
2022-09-28T14:23:56.350Z,96492.81
2022-09-28T14:27:04.752Z,96490.00
2022-09-28T14:29:38.195Z,96494.84
2022-09-28T14:32:08.839Z,96498.38
2022-09-28T14:34:59.300Z,96498.63
2022-09-28T14:37:50.760Z,96506.53
2022-09-28T14:40:39.238Z,96498.19
2022-09-28T14:43:34.042Z,96508.75
2022-09-28T14:46:18.812Z,96505.84
2022-09-28T14:49:03.603Z,96509.09
2022-09-28T14:51:30.458Z,96510.81
2022-09-28T14:54:07.834Z,96514.13
2022-09-28T14:56:54.278Z,96515.78
2022-09-28T14:59:29.579Z,96518.66
2022-09-28T15:02:23.752Z,96516.38
2022-09-28T15:05:09.984Z,96514.28
2022-09-28T15:07:52.375Z,96518.50
2022-09-28T15:10:36.215Z,96515.75
2022-09-28T15:13:24.907Z,96512.09
2022-09-28T15:16:04.236Z,96512.88
2022-09-28T15:19:19.480Z,96510.44
2022-09-28T15:21:48.640Z,96510.50
2022-09-28T15:24:28.945Z,96513.16
2022-09-28T15:26:56.806Z,96514.22
2022-09-28T15:29:24.131Z,96520.34
2022-09-28T15:31:54.292Z,96516.38
2022-09-28T15:34:52.582Z,96512.72
2022-09-28T15:37:33.936Z,96511.84
2022-09-28T15:40:04.095Z,96514.81
2022-09-28T15:42:36.791Z,96518.75
2022-09-28T15:48:33.564Z,96517.75
2022-09-28T15:51:12.756Z,96519.59
2022-09-28T15:53:55.999Z,96533.31
2022-09-28T15:56:23.093Z,96533.84
2022-09-28T15:59:15.948Z,96538.47
2022-09-28T16:01:44.626Z,96540.31
2022-09-28T16:04:39.512Z,96532.44
2022-09-28T16:07:34.683Z,96531.03
2022-09-28T16:10:13.999Z,96528.28
2022-09-28T16:12:52.573Z,96527.03
2022-09-28T16:15:28.029Z,96527.44
2022-09-28T16:18:01.498Z,96534.44
2022-09-28T16:20:34.042Z,96536.31
2022-09-28T16:23:27.255Z,96544.28
2022-09-28T16:26:11.273Z,96538.44
2022-09-28T16:28:48.708Z,96537.50
2022-09-28T16:31:16.087Z,96535.19
2022-09-28T16:33:54.323Z,96542.47
2022-09-28T16:36:27.382Z,96542.47
2022-09-28T16:38:55.188Z,96541.34
2022-09-28T16:41:26.819Z,96540.06
2022-09-28T16:44:00.815Z,96538.47
2022-09-28T16:46:37.341Z,96546.56
2022-09-28T16:49:06.707Z,96548.72
2022-09-28T16:51:34.156Z,96543.81
2022-09-28T16:54:38.937Z,96547.75
2022-09-28T16:57:08.906Z,96552.22
2022-09-28T16:59:38.391Z,96557.91
2022-09-28T17:05:15.707Z,96557.84
2022-09-28T17:07:44.234Z,96563.50
2022-09-28T17:10:50.081Z,96552.44
2022-09-28T17:13:36.156Z,96562.59
2022-09-28T17:16:11.370Z,96560.19
2022-09-28T17:18:41.875Z,96567.81
2022-09-28T17:21:15.985Z,96568.75
2022-09-28T17:23:45.024Z,96565.72
2022-09-28T17:26:31.567Z,96572.75
2022-09-28T17:28:59.576Z,96569.28
2022-09-28T17:31:26.896Z,96578.19
2022-09-28T17:33:54.514Z,96574.44
2022-09-28T17:36:22.087Z,96579.09
2022-09-28T17:38:51.709Z,96576.00
2022-09-28T17:41:20.827Z,96583.09
2022-09-28T17:43:48.905Z,96594.63
2022-09-28T17:46:30.464Z,96594.53
2022-09-28T17:48:59.804Z,96592.75
2022-09-28T17:51:34.609Z,96592.75
2022-09-28T17:54:02.308Z,96602.16
2022-09-28T17:56:32.711Z,96602.34
2022-09-28T17:59:03.262Z,96602.91
2022-09-28T18:01:34.383Z,96597.28
2022-09-28T18:04:04.178Z,96608.00
2022-09-28T18:06:34.783Z,96602.13
2022-09-28T18:09:03.170Z,96604.03
2022-09-28T18:11:31.663Z,96600.38
2022-09-28T18:13:58.629Z,96596.34
2022-09-28T18:16:27.919Z,96608.06
2022-09-28T18:18:55.229Z,96608.66
2022-09-28T18:21:22.282Z,96611.78
2022-09-28T18:23:49.314Z,96610.75
2022-09-28T18:26:19.508Z,96608.44
2022-09-28T18:28:46.895Z,96614.41
2022-09-28T18:31:15.643Z,96614.41
2022-09-28T18:33:43.325Z,96624.34
2022-09-28T18:36:10.366Z,96623.53
2022-09-28T18:38:38.599Z,96632.06
2022-09-28T18:41:15.626Z,96627.13
2022-09-28T18:43:48.928Z,96627.13
2022-09-28T18:46:18.307Z,96646.97
2022-09-28T18:48:47.383Z,96648.06
2022-09-28T18:51:17.119Z,96649.22
2022-09-28T18:53:44.103Z,96651.88
2022-09-28T18:56:19.743Z,96656.44
2022-09-28T18:58:51.719Z,96665.75
2022-09-28T19:01:36.262Z,96660.38
2022-09-28T19:04:06.701Z,96660.53
2022-09-28T19:06:36.874Z,96669.47
2022-09-28T19:09:04.247Z,96662.78
2022-09-28T19:11:32.444Z,96675.97
2022-09-28T19:13:59.370Z,96669.53
2022-09-28T19:16:41.329Z,96671.72
2022-09-28T19:19:12.537Z,96666.88
2022-09-28T19:21:41.199Z,96667.94
2022-09-28T19:24:10.121Z,96674.63
2022-09-28T19:26:37.109Z,96679.69
2022-09-28T19:29:04.361Z,96674.38
2022-09-28T19:31:32.338Z,96679.44
2022-09-28T19:33:59.541Z,96680.22
2022-09-28T19:36:28.524Z,96687.19
2022-09-28T19:38:58.104Z,96672.47
2022-09-28T19:41:46.460Z,96674.56
2022-09-28T19:44:25.279Z,96687.19
2022-09-28T19:46:59.264Z,96685.59
2022-09-28T19:49:27.903Z,96683.97
2022-09-28T19:52:12.219Z,96688.28
2022-09-28T19:54:43.891Z,96697.97
2022-09-28T19:57:12.761Z,96688.00
2022-09-28T19:59:39.751Z,96692.56
2022-09-28T20:02:09.923Z,96696.31
2022-09-28T20:04:36.916Z,96708.75
2022-09-28T20:07:05.218Z,96693.59
2022-09-28T20:09:32.817Z,96710.47
2022-09-28T20:11:59.877Z,96709.81
2022-09-28T20:14:32.011Z,96716.44
2022-09-28T20:17:01.185Z,96711.56
2022-09-28T20:19:28.196Z,96721.28
2022-09-28T20:21:58.551Z,96720.56
2022-09-28T20:24:25.637Z,96722.06
2022-09-28T20:26:52.622Z,96719.16
2022-09-28T20:29:19.644Z,96725.44
2022-09-28T20:31:46.856Z,96719.84
2022-09-28T20:34:14.020Z,96732.00
2022-09-28T20:36:44.509Z,96731.50
2022-09-28T20:39:12.216Z,96727.88
2022-09-28T20:41:39.929Z,96728.13
2022-09-28T20:44:07.396Z,96723.81
2022-09-28T20:46:35.819Z,96727.56
2022-09-28T20:49:04.184Z,96735.34
2022-09-28T20:51:32.294Z,96736.78
2022-09-28T20:54:00.305Z,96739.53
2022-09-28T20:56:30.519Z,96736.53
2022-09-28T20:58:57.702Z,96735.69
2022-09-28T21:01:27.555Z,96735.81
2022-09-28T21:04:02.642Z,96739.78
2022-09-28T21:06:38.663Z,96733.38
2022-09-28T21:09:07.709Z,96732.22
2022-09-28T21:11:35.811Z,96740.25
2022-09-28T21:14:06.272Z,96734.09
2022-09-28T21:16:35.462Z,96734.91
2022-09-28T21:19:03.330Z,96734.59
2022-09-28T21:21:30.342Z,96734.53
2022-09-28T21:23:58.450Z,96730.78
2022-09-28T21:26:28.275Z,96728.53
2022-09-28T21:28:58.715Z,96727.59
2022-09-28T21:31:29.530Z,96734.72
2022-09-28T21:33:58.086Z,96735.44
2022-09-28T21:36:25.765Z,96720.56
2022-09-28T21:38:54.499Z,96728.75
2022-09-28T21:41:21.905Z,96722.88
2022-09-28T21:43:48.855Z,96729.47
2022-09-28T21:46:16.081Z,96717.16
2022-09-28T21:48:43.265Z,96722.38
2022-09-28T21:51:14.217Z,96732.06
2022-09-28T21:53:41.220Z,96722.38
2022-09-28T21:56:12.143Z,96721.91
2022-09-28T21:58:40.207Z,96724.03
2022-09-28T22:01:20.180Z,96723.06
2022-09-28T22:03:50.573Z,96728.56
2022-09-28T22:06:20.302Z,96728.00
2022-09-28T22:08:49.289Z,96726.16
2022-09-28T22:11:20.229Z,96726.66
2022-09-28T22:13:53.457Z,96724.91
2022-09-28T22:16:23.426Z,96727.66
2022-09-28T22:18:51.177Z,96722.94
2022-09-28T22:21:24.673Z,96722.75
2022-09-28T22:23:52.803Z,96726.38
2022-09-28T22:26:25.607Z,96725.31
2022-09-28T22:28:55.884Z,96725.00
2022-09-28T22:31:26.965Z,96723.09
2022-09-28T22:33:54.672Z,96726.03
2022-09-28T22:36:22.346Z,96722.47
2022-09-28T22:38:50.770Z,96718.03
2022-09-28T22:41:22.313Z,96726.03
2022-09-28T22:43:51.874Z,96736.63
2022-09-28T22:46:31.907Z,96730.59
2022-09-28T22:48:59.940Z,96717.72
2022-09-28T22:51:29.069Z,96726.28
2022-09-28T22:53:56.748Z,96723.81
2022-09-28T22:56:24.545Z,96718.38
2022-09-28T22:58:51.563Z,96717.69
2022-09-28T23:01:28.251Z,96720.41
2022-09-28T23:03:57.418Z,96721.28
2022-09-28T23:06:27.751Z,96717.69
2022-09-28T23:08:54.836Z,96712.81
2022-09-28T23:11:22.226Z,96721.63
2022-09-28T23:13:51.526Z,96721.28
2022-09-28T23:16:19.487Z,96722.94
2022-09-28T23:18:46.606Z,96715.53
2022-09-28T23:21:17.788Z,96721.34
2022-09-28T23:23:46.200Z,96717.16
2022-09-28T23:26:22.940Z,96714.75
2022-09-28T23:28:50.013Z,96724.88
2022-09-28T23:31:24.195Z,96719.13
2022-09-28T23:33:51.525Z,96718.88
2022-09-28T23:36:18.883Z,96714.91
2022-09-28T23:38:45.880Z,96718.69
2022-09-28T23:41:12.898Z,96719.19
2022-09-28T23:43:39.913Z,96718.78
2022-09-28T23:46:07.220Z,96720.16
2022-09-28T23:48:34.701Z,96722.53
2022-09-28T23:51:02.639Z,96730.41
2022-09-28T23:53:30.106Z,96722.69
2022-09-28T23:55:57.041Z,96721.19
2022-09-28T23:58:24.250Z,96718.44
